Stations météo

réclame
Mon MeteoGroup
London/Gatwick, Grande-Bretagne (3776): Température de l'air & dewpoint: 13.01.2020 20:00:00 - 19.01.2020 20:00:00 (GMT)London/Gatwick, Grande-Bretagne (3776): Vitesse du vent: 13.01.2020 20:00:00 - 19.01.2020 20:00:00 (GMT)London/Gatwick, Grande-Bretagne (3776): Direction du vent: 13.01.2020 20:00:00 - 19.01.2020 20:00:00 (GMT)London/Gatwick, Grande-Bretagne (3776): visibility: 13.01.2020 20:00:00 - 19.01.2020 20:00:00 (GMT)
Date & Time tt [°C] td [°C] ff [km/h] ff [knt] dd vv [km]
19.01.2020 20:00:00 2,0 1,0 8 4 NNW 10
19.01.2020 19:00:00 2,0 0,0 4 2 - 10
19.01.2020 18:00:00 4,0 1,0 9 5 N 10
19.01.2020 17:00:00 5,0 1,0 11 6 N 10
19.01.2020 16:00:00 6,0 2,0 11 6 NNW 10
19.01.2020 15:00:00 7,0 2,0 15 8 NNW 10
19.01.2020 14:00:00 7,0 2,0 13 7 N 10
19.01.2020 13:00:00 6,0 2,0 11 6 NNW 10
19.01.2020 12:00:00 5,0 2,0 8 4 WNW 10
19.01.2020 11:00:00 4,0 1,0 4 2 - 10
19.01.2020 10:00:00 2,0 0,0 5 3 - 10
19.01.2020 09:00:00 -1,0 -2,0 4 2 S 10
19.01.2020 08:00:00 0,0 -1,0 2 1 - 10
19.01.2020 07:00:00 1,0 -1,0 9 5 NNW 10
19.01.2020 06:00:00 1,0 0,0 9 5 NNW 10
19.01.2020 05:00:00 -1,0 -1,0 4 2 - 10
19.01.2020 04:00:00 1,0 0,0 8 4 NW 10
19.01.2020 03:00:00 1,0 0,0 8 4 NNW 10
19.01.2020 02:00:00 1,0 0,0 8 4 NNW 10
19.01.2020 01:00:00 0,0 -1,0 8 4 WNW 10
19.01.2020 00:00:00 2,0 0,0 8 4 WNW 10
18.01.2020 23:00:00 2,0 1,0 4 2 WNW 10
18.01.2020 22:00:00 3,0 1,0 8 4 NW 10
18.01.2020 21:00:00 3,0 1,0 8 4 NW 10
18.01.2020 20:00:00 3,0 1,0 5 3 - 10
18.01.2020 19:00:00 4,0 1,0 9 5 NW 10
18.01.2020 18:00:00 4,0 0,0 9 5 WNW 10
18.01.2020 17:00:00 5,0 0,0 9 5 NW 10
18.01.2020 16:00:00 6,0 1,0 8 4 NW 10
18.01.2020 15:00:00 7,0 1,0 13 7 NW 10
18.01.2020 14:00:00 7,0 1,0 13 7 NW 10
18.01.2020 13:00:00 7,0 1,0 15 8 NW 10
18.01.2020 12:00:00 6,0 1,0 15 8 WNW 10
18.01.2020 11:00:00 5,0 2,0 4 2 - 10
18.01.2020 10:00:00 3,0 2,0 8 4 NW 10
18.01.2020 09:00:00 0,0 0,0 5 3 SSW 10
18.01.2020 08:00:00 -1,0 -1,0 5 3 S 10
18.01.2020 07:00:00 0,0 0,0 5 3 SSW 10
18.01.2020 06:00:00 0,0 0,0 5 3 SSW 10
18.01.2020 05:00:00 0,0 0,0 8 4 SSW 10
18.01.2020 04:00:00 1,0 1,0 8 4 SSW 10
18.01.2020 03:00:00 1,0 1,0 8 4 S 10
18.01.2020 02:00:00 2,0 1,0 5 3 - 10
18.01.2020 01:00:00 2,0 1,0 8 4 SW 10
18.01.2020 00:00:00 2,0 1,0 5 3 - 10
17.01.2020 23:00:00 3,0 1,0 9 5 SW 10
17.01.2020 22:00:00 3,0 2,0 9 5 SW 10
17.01.2020 21:00:00 3,0 2,0 5 3 SSW 10
17.01.2020 20:00:00 4,0 2,0 5 3 SW 10
17.01.2020 19:00:00 5,0 2,0 11 6 SW 10
17.01.2020 18:00:00 5,0 2,0 8 4 SSW 10
17.01.2020 17:00:00 5,0 2,0 13 7 WSW 10
17.01.2020 16:00:00 5,0 3,0 15 8 WSW 10
17.01.2020 15:00:00 8,0 2,0 24 13 W 10
17.01.2020 14:00:00 7,0 3,0 31 17 W 10
17.01.2020 13:00:00 8,0 3,0 37 20 W 10
17.01.2020 12:00:00 8,0 3,0 41 22 WSW 10
17.01.2020 11:00:00 9,0 6,0 24 13 SW 10
17.01.2020 10:00:00 9,0 7,0 15 8 SSW 10
17.01.2020 09:00:00 9,0 7,0 16 9 SSW 10
17.01.2020 08:00:00 8,0 7,0 11 6 SSW 10
17.01.2020 07:00:00 8,0 7,0 13 7 SSW 10
17.01.2020 06:00:00 10,0 9,0 22 12 SW 9
17.01.2020 05:00:00 10,0 9,0 15 8 SSW 10
17.01.2020 04:00:00 10,0 10,0 16 9 SSW 10
17.01.2020 03:00:00 10,0 10,0 15 8 SSW 10
17.01.2020 02:00:00 10,0 10,0 15 8 SSW 8
17.01.2020 01:00:00 10,0 10,0 11 6 S 9
17.01.2020 00:00:00 10,0 10,0 13 7 SSW 10
16.01.2020 23:00:00 11,0 10,0 15 8 SW 8
16.01.2020 22:00:00 11,0 10,0 24 13 SSW 9
16.01.2020 21:00:00 11,0 10,0 24 13 S 10
16.01.2020 20:00:00 11,0 9,0 24 13 S 10
16.01.2020 19:00:00 12,0 9,0 24 13 S 10
16.01.2020 18:00:00 12,0 8,0 22 12 S 10
16.01.2020 17:00:00 12,0 8,0 24 13 S 10
16.01.2020 16:00:00 12,0 8,0 26 14 S 10
16.01.2020 15:00:00 11,0 7,0 24 13 S 10
16.01.2020 14:00:00 10,0 8,0 21 11 SSE 10
16.01.2020 13:00:00 10,0 7,0 18 10 SSE 10
16.01.2020 12:00:00 9,0 7,0 21 11 SSE 10
16.01.2020 11:00:00 9,0 7,0 15 8 SSE 10
16.01.2020 10:00:00 8,0 7,0 18 10 S 10
16.01.2020 09:00:00 8,0 7,0 18 10 S 10
16.01.2020 08:00:00 8,0 7,0 13 7 SSE 10
16.01.2020 07:00:00 7,0 6,0 9 5 SSE 10
16.01.2020 06:00:00 7,0 6,0 9 5 SSE 10
16.01.2020 05:00:00 7,0 6,0 8 4 SSE 10
16.01.2020 04:00:00 7,0 6,0 9 5 S 10
16.01.2020 03:00:00 7,0 5,0 8 4 S 10
16.01.2020 02:00:00 8,0 5,0 9 5 S 10
16.01.2020 01:00:00 8,0 6,0 13 7 SSW 10
16.01.2020 00:00:00 - - - - - -
15.01.2020 23:00:00 7,0 5,0 5 3 - 10
15.01.2020 22:00:00 6,0 4,0 8 4 S 10
15.01.2020 21:00:00 7,0 4,0 5 3 S 10
15.01.2020 20:00:00 7,0 4,0 11 6 SW 10
15.01.2020 19:00:00 7,0 4,0 9 5 SSW 10
15.01.2020 18:00:00 7,0 4,0 11 6 SSW 10
15.01.2020 17:00:00 8,0 5,0 13 7 SW 10
15.01.2020 16:00:00 9,0 6,0 15 8 SW 10
15.01.2020 15:00:00 9,0 7,0 15 8 SW 10
15.01.2020 14:00:00 8,0 6,0 16 9 SW 10
15.01.2020 13:00:00 8,0 6,0 18 10 SW 10
15.01.2020 12:00:00 7,0 6,0 11 6 SSW 10
15.01.2020 11:00:00 7,0 6,0 11 6 SSW 10
15.01.2020 10:00:00 7,0 6,0 11 6 WSW 10
15.01.2020 09:00:00 7,0 6,0 15 8 W 10
15.01.2020 08:00:00 7,0 7,0 16 9 W 6
15.01.2020 07:00:00 8,0 8,0 9 5 W 10
15.01.2020 06:00:00 11,0 10,0 21 11 SW 3,9
15.01.2020 05:00:00 11,0 10,0 29 16 SW 6
15.01.2020 04:00:00 12,0 10,0 31 17 SSW 8
15.01.2020 03:00:00 12,0 10,0 31 17 SSW 9
15.01.2020 02:00:00 13,0 10,0 42 23 SSW 10
15.01.2020 01:00:00 12,0 10,0 34 18 SSW 10
15.01.2020 00:00:00 12,0 10,0 37 20 SSW 6
14.01.2020 23:00:00 11,0 11,0 37 20 SSW 4,5
14.01.2020 22:00:00 12,0 11,0 48 26 SSW 3,9
14.01.2020 21:00:00 12,0 11,0 39 21 SSW 4,0
14.01.2020 20:00:00 12,0 11,0 35 19 SSW 4,0
14.01.2020 19:00:00 12,0 11,0 35 19 SSW 4,5
14.01.2020 18:00:00 12,0 12,0 34 18 SSW 3,5
14.01.2020 17:00:00 13,0 12,0 41 22 SSW 5
14.01.2020 16:00:00 12,0 12,0 35 19 SSW 2,5
14.01.2020 15:00:00 12,0 12,0 37 20 SSW 3,0
14.01.2020 14:00:00 12,0 12,0 35 19 SSW 3,4
14.01.2020 13:00:00 12,0 11,0 34 18 S 3,5
14.01.2020 12:00:00 10,0 9,0 22 12 S 5
14.01.2020 11:00:00 10,0 9,0 22 12 SSW 10
14.01.2020 10:00:00 10,0 8,0 21 11 SSW 9
14.01.2020 09:00:00 10,0 8,0 21 11 SSW 10
14.01.2020 08:00:00 9,0 8,0 16 9 S 8
14.01.2020 07:00:00 8,0 7,0 9 5 SSW 10
14.01.2020 06:00:00 9,0 8,0 13 7 SW 6
14.01.2020 05:00:00 8,0 7,0 15 8 SSW 10
14.01.2020 04:00:00 9,0 7,0 18 10 SW 10
14.01.2020 03:00:00 8,0 7,0 15 8 SSW 9
14.01.2020 02:00:00 8,0 7,0 15 8 SSW 10
14.01.2020 01:00:00 8,0 7,0 16 9 SSW 10
14.01.2020 00:00:00 8,0 7,0 18 10 SW 10
13.01.2020 23:00:00 10,0 9,0 22 12 SW 9
13.01.2020 22:00:00 11,0 10,0 35 19 SSW 9
13.01.2020 21:00:00 11,0 10,0 35 19 SSW 7
13.01.2020 20:00:00 11,0 10,0 35 19 SSW 10

tt = Température de l'air
td = dewpoint
ff = Vitesse du vent
dd = Direction du vent
vv = visibility

stations d'obs. à proximité